sensor_id;sensor_type;location;lat;lon;timestamp;temperature;humidity
35682;DHT22;21805;51.022;4.782;2023-04-24T00:27:59;11.60;99.90
35682;DHT22;21805;51.022;4.782;2023-04-24T00:34:08;11.40;99.90
35682;DHT22;21805;51.022;4.782;2023-04-24T00:36:44;11.40;99.90
35682;DHT22;21805;51.022;4.782;2023-04-24T00:42:46;11.40;99.90
35682;DHT22;21805;51.022;4.782;2023-04-24T00:45:14;11.30;99.90
35682;DHT22;21805;51.022;4.782;2023-04-24T00:47:58;11.30;99.90
35682;DHT22;21805;51.022;4.782;2023-04-24T01:18:43;11.30;99.90
35682;DHT22;21805;51.022;4.782;2023-04-24T01:29:33;11.20;99.90
35682;DHT22;21805;51.022;4.782;2023-04-24T01:43:13;11.20;99.90
35682;DHT22;21805;51.022;4.782;2023-04-24T01:54:28;11.30;99.90
35682;DHT22;21805;51.022;4.782;2023-04-24T02:00:29;11.20;99.90
35682;DHT22;21805;51.022;4.782;2023-04-24T02:15:15;11.20;99.90
35682;DHT22;21805;51.022;4.782;2023-04-24T02:51:03;10.80;99.90
35682;DHT22;21805;51.022;4.782;2023-04-24T02:53:38;10.80;99.90
35682;DHT22;21805;51.022;4.782;2023-04-24T02:56:22;10.90;99.90
35682;DHT22;21805;51.022;4.782;2023-04-24T02:58:53;10.80;99.90
35682;DHT22;21805;51.022;4.782;2023-04-24T03:04:49;10.90;99.90
35682;DHT22;21805;51.022;4.782;2023-04-24T03:10:28;10.80;99.90
35682;DHT22;21805;51.022;4.782;2023-04-24T03:15:30;10.70;99.90
35682;DHT22;21805;51.022;4.782;2023-04-24T03:21:11;10.70;99.90
35682;DHT22;21805;51.022;4.782;2023-04-24T03:23:52;10.70;99.90
35682;DHT22;21805;51.022;4.782;2023-04-24T03:26:22;10.70;99.90
35682;DHT22;21805;51.022;4.782;2023-04-24T03:28:50;10.70;99.90
35682;DHT22;21805;51.022;4.782;2023-04-24T03:31:41;10.80;99.90
35682;DHT22;21805;51.022;4.782;2023-04-24T03:34:16;10.80;99.90
35682;DHT22;21805;51.022;4.782;2023-04-24T03:46:11;10.70;99.90
35682;DHT22;21805;51.022;4.782;2023-04-24T04:06:42;10.50;99.90
35682;DHT22;21805;51.022;4.782;2023-04-24T04:09:22;10.50;99.90
35682;DHT22;21805;51.022;4.782;2023-04-24T04:12:15;10.40;99.90
35682;DHT22;21805;51.022;4.782;2023-04-24T04:14:54;10.40;99.90
35682;DHT22;21805;51.022;4.782;2023-04-24T04:20:45;10.50;99.90
35682;DHT22;21805;51.022;4.782;2023-04-24T04:23:35;10.50;99.90
35682;DHT22;21805;51.022;4.782;2023-04-24T04:29:21;10.60;99.90
35682;DHT22;21805;51.022;4.782;2023-04-24T04:31:54;10.60;99.90
35682;DHT22;21805;51.022;4.782;2023-04-24T04:34:34;10.50;99.90
35682;DHT22;21805;51.022;4.782;2023-04-24T04:37:14;10.50;99.90
35682;DHT22;21805;51.022;4.782;2023-04-24T04:39:52;10.50;99.90
35682;DHT22;21805;51.022;4.782;2023-04-24T04:45:24;10.30;99.90
35682;DHT22;21805;51.022;4.782;2023-04-24T04:51:11;10.50;99.90
35682;DHT22;21805;51.022;4.782;2023-04-24T04:53:51;10.40;99.90
35682;DHT22;21805;51.022;4.782;2023-04-24T05:02:20;10.40;99.90
35682;DHT22;21805;51.022;4.782;2023-04-24T05:14:02;10.30;99.90
35682;DHT22;21805;51.022;4.782;2023-04-24T05:25:16;10.00;99.90
35682;DHT22;21805;51.022;4.782;2023-04-24T05:31:04;9.90;99.90
35682;DHT22;21805;51.022;4.782;2023-04-24T05:33:43;9.90;99.90
35682;DHT22;21805;51.022;4.782;2023-04-24T05:39:01;10.00;99.90
35682;DHT22;21805;51.022;4.782;2023-04-24T05:41:33;10.10;99.90
35682;DHT22;21805;51.022;4.782;2023-04-24T05:49:18;10.20;99.90
35682;DHT22;21805;51.022;4.782;2023-04-24T05:56:58;10.10;99.90
35682;DHT22;21805;51.022;4.782;2023-04-24T06:07:53;9.90;99.90
35682;DHT22;21805;51.022;4.782;2023-04-24T06:30:01;10.40;99.90
35682;DHT22;21805;51.022;4.782;2023-04-24T06:32:31;10.50;99.90
35682;DHT22;21805;51.022;4.782;2023-04-24T06:34:57;10.50;99.90
35682;DHT22;21805;51.022;4.782;2023-04-24T06:40:30;10.50;99.90
35682;DHT22;21805;51.022;4.782;2023-04-24T06:42:59;10.40;99.90
35682;DHT22;21805;51.022;4.782;2023-04-24T06:45:27;10.40;99.90
35682;DHT22;21805;51.022;4.782;2023-04-24T06:47:56;10.40;99.90
35682;DHT22;21805;51.022;4.782;2023-04-24T06:50:22;10.40;99.90
35682;DHT22;21805;51.022;4.782;2023-04-24T06:52:48;10.40;99.90
35682;DHT22;21805;51.022;4.782;2023-04-24T06:55:23;10.40;99.90
35682;DHT22;21805;51.022;4.782;2023-04-24T06:57:51;10.40;99.90
35682;DHT22;21805;51.022;4.782;2023-04-24T07:00:17;10.30;99.90
35682;DHT22;21805;51.022;4.782;2023-04-24T07:02:44;10.30;99.90
35682;DHT22;21805;51.022;4.782;2023-04-24T07:05:10;10.20;99.90
35682;DHT22;21805;51.022;4.782;2023-04-24T07:07:36;10.20;99.90
35682;DHT22;21805;51.022;4.782;2023-04-24T07:12:34;10.40;99.90
35682;DHT22;21805;51.022;4.782;2023-04-24T07:15:01;10.30;99.90
35682;DHT22;21805;51.022;4.782;2023-04-24T07:17:26;10.30;99.90
35682;DHT22;21805;51.022;4.782;2023-04-24T07:19:52;10.20;99.90
35682;DHT22;21805;51.022;4.782;2023-04-24T07:22:17;10.10;99.90
35682;DHT22;21805;51.022;4.782;2023-04-24T07:24:44;10.20;99.90
35682;DHT22;21805;51.022;4.782;2023-04-24T07:27:09;10.10;99.90
35682;DHT22;21805;51.022;4.782;2023-04-24T07:29:35;10.10;99.90
35682;DHT22;21805;51.022;4.782;2023-04-24T07:32:01;10.20;99.90
35682;DHT22;21805;51.022;4.782;2023-04-24T07:34:29;10.20;99.90
35682;DHT22;21805;51.022;4.782;2023-04-24T07:36:56;10.30;99.90
35682;DHT22;21805;51.022;4.782;2023-04-24T07:39:23;10.40;99.90
35682;DHT22;21805;51.022;4.782;2023-04-24T07:41:50;10.50;99.90
35682;DHT22;21805;51.022;4.782;2023-04-24T07:44:15;10.50;99.90
35682;DHT22;21805;51.022;4.782;2023-04-24T07:46:42;10.50;99.90
35682;DHT22;21805;51.022;4.782;2023-04-24T07:49:10;10.60;99.90
35682;DHT22;21805;51.022;4.782;2023-04-24T07:54:04;10.90;99.90
35682;DHT22;21805;51.022;4.782;2023-04-24T07:56:35;11.10;99.90
35682;DHT22;21805;51.022;4.782;2023-04-24T07:59:04;11.20;99.90
35682;DHT22;21805;51.022;4.782;2023-04-24T08:01:30;11.10;99.90
35682;DHT22;21805;51.022;4.782;2023-04-24T08:04:02;11.30;99.90
35682;DHT22;21805;51.022;4.782;2023-04-24T08:06:30;11.40;99.90
35682;DHT22;21805;51.022;4.782;2023-04-24T08:08:57;11.30;99.90
35682;DHT22;21805;51.022;4.782;2023-04-24T08:11:23;11.40;99.90
35682;DHT22;21805;51.022;4.782;2023-04-24T08:13:50;11.50;99.90
35682;DHT22;21805;51.022;4.782;2023-04-24T08:16:16;11.60;99.90
35682;DHT22;21805;51.022;4.782;2023-04-24T08:18:42;11.70;99.90
35682;DHT22;21805;51.022;4.782;2023-04-24T08:21:07;11.60;99.90
35682;DHT22;21805;51.022;4.782;2023-04-24T08:23:33;11.60;99.90
35682;DHT22;21805;51.022;4.782;2023-04-24T08:26:00;11.60;99.90
35682;DHT22;21805;51.022;4.782;2023-04-24T08:28:27;11.60;99.90
35682;DHT22;21805;51.022;4.782;2023-04-24T08:30:53;11.60;99.90
35682;DHT22;21805;51.022;4.782;2023-04-24T08:33:20;11.70;99.90
35682;DHT22;21805;51.022;4.782;2023-04-24T08:35:47;11.60;99.90
35682;DHT22;21805;51.022;4.782;2023-04-24T08:38:12;11.60;99.90
35682;DHT22;21805;51.022;4.782;2023-04-24T08:40:38;11.70;99.90
35682;DHT22;21805;51.022;4.782;2023-04-24T08:43:05;11.60;99.90
35682;DHT22;21805;51.022;4.782;2023-04-24T08:45:32;11.40;99.90
35682;DHT22;21805;51.022;4.782;2023-04-24T08:47:58;11.50;99.90
35682;DHT22;21805;51.022;4.782;2023-04-24T08:50:24;11.50;99.90
35682;DHT22;21805;51.022;4.782;2023-04-24T08:52:50;11.70;99.90
35682;DHT22;21805;51.022;4.782;2023-04-24T08:55:19;11.80;99.90
35682;DHT22;21805;51.022;4.782;2023-04-24T08:57:48;12.10;99.90
35682;DHT22;21805;51.022;4.782;2023-04-24T09:00:15;12.10;99.90
35682;DHT22;21805;51.022;4.782;2023-04-24T09:02:44;12.40;99.90
35682;DHT22;21805;51.022;4.782;2023-04-24T09:05:12;12.70;99.90
35682;DHT22;21805;51.022;4.782;2023-04-24T09:07:41;12.80;99.90
35682;DHT22;21805;51.022;4.782;2023-04-24T09:10:08;12.90;99.90
35682;DHT22;21805;51.022;4.782;2023-04-24T09:12:35;12.90;99.90
35682;DHT22;21805;51.022;4.782;2023-04-24T09:15:04;12.80;99.90
35682;DHT22;21805;51.022;4.782;2023-04-24T09:17:41;12.80;99.90
35682;DHT22;21805;51.022;4.782;2023-04-24T09:20:07;12.60;99.90
35682;DHT22;21805;51.022;4.782;2023-04-24T09:22:34;12.50;99.90
35682;DHT22;21805;51.022;4.782;2023-04-24T09:25:02;12.40;99.90
35682;DHT22;21805;51.022;4.782;2023-04-24T09:27:32;12.20;99.90
35682;DHT22;21805;51.022;4.782;2023-04-24T09:30:08;12.40;99.90
35682;DHT22;21805;51.022;4.782;2023-04-24T09:32:36;12.60;99.90
35682;DHT22;21805;51.022;4.782;2023-04-24T09:35:15;12.90;99.90
35682;DHT22;21805;51.022;4.782;2023-04-24T09:37:44;12.90;99.90
35682;DHT22;21805;51.022;4.782;2023-04-24T09:40:18;12.90;99.90
35682;DHT22;21805;51.022;4.782;2023-04-24T09:42:56;12.80;99.90
35682;DHT22;21805;51.022;4.782;2023-04-24T09:45:44;12.70;99.90
35682;DHT22;21805;51.022;4.782;2023-04-24T09:48:12;12.70;99.90
35682;DHT22;21805;51.022;4.782;2023-04-24T12:40:13;14.50;99.90
35682;DHT22;21805;51.022;4.782;2023-04-24T12:42:59;14.50;99.90
35682;DHT22;21805;51.022;4.782;2023-04-24T12:49:19;14.50;99.90
35682;DHT22;21805;51.022;4.782;2023-04-24T12:51:45;14.80;99.90
35682;DHT22;21805;51.022;4.782;2023-04-24T12:54:17;15.10;99.90
35682;DHT22;21805;51.022;4.782;2023-04-24T12:56:49;15.00;99.90
35682;DHT22;21805;51.022;4.782;2023-04-24T12:59:37;15.10;99.90
35682;DHT22;21805;51.022;4.782;2023-04-24T13:38:56;17.30;99.90
35682;DHT22;21805;51.022;4.782;2023-04-24T13:41:43;17.20;99.90
35682;DHT22;21805;51.022;4.782;2023-04-24T13:47:09;16.80;99.90
35682;DHT22;21805;51.022;4.782;2023-04-24T13:49:48;16.80;99.90
35682;DHT22;21805;51.022;4.782;2023-04-24T13:52:41;16.90;99.90
